sensor_id;sensor_type;location;lat;lon;timestamp;pressure;altitude;pressure_sealevel;temperature;humidity
79455;BME280;68900;52.134;5.420;2023-09-19T00:00:46;100832.03;;;15.41;89.18
79455;BME280;68900;52.134;5.420;2023-09-19T00:03:16;100842.25;;;15.39;89.17
79455;BME280;68900;52.134;5.420;2023-09-19T00:05:43;100837.00;;;15.37;89.28
79455;BME280;68900;52.134;5.420;2023-09-19T00:08:10;100834.44;;;15.36;88.69
79455;BME280;68900;52.134;5.420;2023-09-19T00:10:40;100840.09;;;15.34;88.58
79455;BME280;68900;52.134;5.420;2023-09-19T00:13:08;100845.69;;;15.33;88.72
79455;BME280;68900;52.134;5.420;2023-09-19T00:15:46;100855.25;;;15.29;88.64
79455;BME280;68900;52.134;5.420;2023-09-19T00:18:18;100850.81;;;15.28;88.50
79455;BME280;68900;52.134;5.420;2023-09-19T00:20:49;100859.84;;;15.28;88.45
79455;BME280;68900;52.134;5.420;2023-09-19T00:23:17;100855.41;;;15.27;88.51
79455;BME280;68900;52.134;5.420;2023-09-19T00:25:46;100844.53;;;15.27;89.09
79455;BME280;68900;52.134;5.420;2023-09-19T00:28:12;100851.84;;;15.27;88.81
79455;BME280;68900;52.134;5.420;2023-09-19T00:30:42;100850.53;;;15.23;89.16
79455;BME280;68900;52.134;5.420;2023-09-19T00:33:09;100853.91;;;15.25;88.83
79455;BME280;68900;52.134;5.420;2023-09-19T00:35:37;100861.41;;;15.23;89.36
79455;BME280;68900;52.134;5.420;2023-09-19T00:38:04;100856.81;;;15.23;89.34
79455;BME280;68900;52.134;5.420;2023-09-19T00:40:30;100856.16;;;15.21;89.05
79455;BME280;68900;52.134;5.420;2023-09-19T00:42:59;100857.81;;;15.22;88.79
79455;BME280;68900;52.134;5.420;2023-09-19T00:45:26;100863.25;;;15.22;89.32
79455;BME280;68900;52.134;5.420;2023-09-19T00:47:55;100853.13;;;15.16;89.74
79455;BME280;68900;52.134;5.420;2023-09-19T00:50:24;100860.25;;;15.17;89.35
79455;BME280;68900;52.134;5.420;2023-09-19T00:52:54;100859.94;;;15.12;89.08
79455;BME280;68900;52.134;5.420;2023-09-19T00:55:25;100865.56;;;15.11;89.17
79455;BME280;68900;52.134;5.420;2023-09-19T00:57:52;100865.38;;;15.12;90.21
79455;BME280;68900;52.134;5.420;2023-09-19T01:00:19;100872.34;;;15.15;89.83
79455;BME280;68900;52.134;5.420;2023-09-19T01:02:47;100877.41;;;15.18;90.52
79455;BME280;68900;52.134;5.420;2023-09-19T01:05:15;100876.22;;;15.20;90.41
79455;BME280;68900;52.134;5.420;2023-09-19T01:07:42;100877.06;;;15.21;89.62
79455;BME280;68900;52.134;5.420;2023-09-19T01:10:11;100880.78;;;15.20;90.03
79455;BME280;68900;52.134;5.420;2023-09-19T01:13:09;100879.94;;;15.19;90.20
79455;BME280;68900;52.134;5.420;2023-09-19T01:15:52;100882.34;;;15.14;89.98
79455;BME280;68900;52.134;5.420;2023-09-19T01:18:32;100879.47;;;15.16;90.14
79455;BME280;68900;52.134;5.420;2023-09-19T01:21:08;100878.41;;;15.17;90.31
79455;BME280;68900;52.134;5.420;2023-09-19T01:29:49;100883.91;;;15.09;89.81
79455;BME280;68900;52.134;5.420;2023-09-19T01:32:17;100885.78;;;15.08;90.47
79455;BME280;68900;52.134;5.420;2023-09-19T01:34:54;100882.91;;;15.10;89.96
79455;BME280;68900;52.134;5.420;2023-09-19T01:37:23;100885.63;;;15.10;90.78
79455;BME280;68900;52.134;5.420;2023-09-19T01:39:58;100882.91;;;15.10;90.61
79455;BME280;68900;52.134;5.420;2023-09-19T01:51:11;100887.16;;;15.04;90.94
79455;BME280;68900;52.134;5.420;2023-09-19T01:53:45;100896.34;;;15.03;90.81
79455;BME280;68900;52.134;5.420;2023-09-19T01:56:57;100893.63;;;15.03;90.56
79455;BME280;68900;52.134;5.420;2023-09-19T01:59:34;100890.91;;;15.03;90.64
79455;BME280;68900;52.134;5.420;2023-09-19T02:02:07;100895.69;;;15.01;90.96
79455;BME280;68900;52.134;5.420;2023-09-19T02:04:35;100893.81;;;15.01;91.22
79455;BME280;68900;52.134;5.420;2023-09-19T02:07:05;100892.13;;;15.00;90.29
79455;BME280;68900;52.134;5.420;2023-09-19T02:09:34;100893.69;;;14.95;91.05
79455;BME280;68900;52.134;5.420;2023-09-19T02:12:05;100895.75;;;14.93;90.75
79455;BME280;68900;52.134;5.420;2023-09-19T02:14:32;100885.91;;;14.92;90.97
79455;BME280;68900;52.134;5.420;2023-09-19T02:16:59;100886.75;;;14.92;91.06
79455;BME280;68900;52.134;5.420;2023-09-19T02:19:26;100884.88;;;14.93;90.64
79455;BME280;68900;52.134;5.420;2023-09-19T02:21:57;100883.34;;;14.90;90.46
79455;BME280;68900;52.134;5.420;2023-09-19T02:24:23;100883.03;;;14.85;90.38
79455;BME280;68900;52.134;5.420;2023-09-19T02:26:51;100892.88;;;14.86;90.42
79455;BME280;68900;52.134;5.420;2023-09-19T02:29:19;100896.63;;;14.85;90.53
79455;BME280;68900;52.134;5.420;2023-09-19T02:31:45;100895.97;;;14.83;90.36
79455;BME280;68900;52.134;5.420;2023-09-19T02:34:13;100895.28;;;14.81;89.98
79455;BME280;68900;52.134;5.420;2023-09-19T02:36:45;100898.00;;;14.81;89.79
79455;BME280;68900;52.134;5.420;2023-09-19T02:39:12;100905.13;;;14.82;89.97
79455;BME280;68900;52.134;5.420;2023-09-19T02:41:39;100902.59;;;14.81;89.04
79455;BME280;68900;52.134;5.420;2023-09-19T02:44:05;100909.41;;;14.77;89.88
79455;BME280;68900;52.134;5.420;2023-09-19T02:46:34;100897.88;;;14.75;89.04
79455;BME280;68900;52.134;5.420;2023-09-19T02:49:03;100897.34;;;14.71;89.23
79455;BME280;68900;52.134;5.420;2023-09-19T02:51:33;100898.41;;;14.70;88.92
79455;BME280;68900;52.134;5.420;2023-09-19T02:53:59;100895.19;;;14.67;89.09
79455;BME280;68900;52.134;5.420;2023-09-19T02:56:26;100905.06;;;14.59;88.16
79455;BME280;68900;52.134;5.420;2023-09-19T02:58:53;100907.09;;;14.57;88.58
79455;BME280;68900;52.134;5.420;2023-09-19T03:01:19;100905.75;;;14.53;88.94
79455;BME280;68900;52.134;5.420;2023-09-19T03:03:46;100913.25;;;14.51;88.34
79455;BME280;68900;52.134;5.420;2023-09-19T03:06:13;100902.06;;;14.46;88.42
79455;BME280;68900;52.134;5.420;2023-09-19T03:08:39;100907.66;;;14.45;88.04
79455;BME280;68900;52.134;5.420;2023-09-19T03:11:06;100898.84;;;14.43;88.10
79455;BME280;68900;52.134;5.420;2023-09-19T03:13:33;100892.25;;;14.37;88.25
79455;BME280;68900;52.134;5.420;2023-09-19T03:16:04;100896.97;;;14.35;88.26
79455;BME280;68900;52.134;5.420;2023-09-19T03:18:34;100903.59;;;14.25;87.23
79455;BME280;68900;52.134;5.420;2023-09-19T03:21:01;100903.28;;;14.28;87.68
79455;BME280;68900;52.134;5.420;2023-09-19T03:23:28;100902.59;;;14.26;86.95
79455;BME280;68900;52.134;5.420;2023-09-19T03:25:55;100899.22;;;14.24;87.27
79455;BME280;68900;52.134;5.420;2023-09-19T03:28:22;100902.63;;;14.18;87.06
79455;BME280;68900;52.134;5.420;2023-09-19T03:31:18;100902.66;;;14.09;87.04
79455;BME280;68900;52.134;5.420;2023-09-19T03:33:45;100905.88;;;14.05;87.23
79455;BME280;68900;52.134;5.420;2023-09-19T03:36:11;100903.69;;;14.00;87.13
79455;BME280;68900;52.134;5.420;2023-09-19T03:38:41;100900.78;;;14.02;87.24
79455;BME280;68900;52.134;5.420;2023-09-19T03:41:08;100906.88;;;14.04;87.05
79455;BME280;68900;52.134;5.420;2023-09-19T03:43:35;100894.84;;;13.98;86.94
79455;BME280;68900;52.134;5.420;2023-09-19T03:46:02;100892.66;;;13.94;86.54
79455;BME280;68900;52.134;5.420;2023-09-19T03:48:32;100890.09;;;13.92;86.56
79455;BME280;68900;52.134;5.420;2023-09-19T03:51:00;100893.88;;;13.91;86.38
79455;BME280;68900;52.134;5.420;2023-09-19T03:53:26;100888.94;;;13.87;86.34
79455;BME280;68900;52.134;5.420;2023-09-19T03:55:53;100901.97;;;13.83;85.98
79455;BME280;68900;52.134;5.420;2023-09-19T03:58:19;100903.53;;;13.78;85.83
79455;BME280;68900;52.134;5.420;2023-09-19T04:00:47;100903.38;;;13.71;86.01
79455;BME280;68900;52.134;5.420;2023-09-19T04:03:14;100910.16;;;13.67;85.76
79455;BME280;68900;52.134;5.420;2023-09-19T04:05:46;100913.38;;;13.62;85.70
79455;BME280;68900;52.134;5.420;2023-09-19T04:08:14;100914.38;;;13.61;85.42
79455;BME280;68900;52.134;5.420;2023-09-19T04:10:43;100920.31;;;13.65;85.74
79455;BME280;68900;52.134;5.420;2023-09-19T04:13:10;100923.34;;;13.62;85.37
79455;BME280;68900;52.134;5.420;2023-09-19T04:15:37;100934.53;;;13.67;85.76
79455;BME280;68900;52.134;5.420;2023-09-19T04:18:04;100931.34;;;13.63;84.89
79455;BME280;68900;52.134;5.420;2023-09-19T04:20:30;100930.44;;;13.55;84.62
79455;BME280;68900;52.134;5.420;2023-09-19T04:22:58;100929.63;;;13.54;85.14
79455;BME280;68900;52.134;5.420;2023-09-19T04:25:26;100940.63;;;13.53;84.55
79455;BME280;68900;52.134;5.420;2023-09-19T04:27:54;100952.13;;;13.55;84.88
79455;BME280;68900;52.134;5.420;2023-09-19T04:30:21;100945.72;;;13.56;84.76
79455;BME280;68900;52.134;5.420;2023-09-19T04:32:48;100958.41;;;13.55;84.35
79455;BME280;68900;52.134;5.420;2023-09-19T04:35:17;100954.03;;;13.54;84.44
79455;BME280;68900;52.134;5.420;2023-09-19T04:37:44;100962.31;;;13.53;84.06
79455;BME280;68900;52.134;5.420;2023-09-19T04:40:11;100971.81;;;13.49;84.36
79455;BME280;68900;52.134;5.420;2023-09-19T04:42:44;100988.22;;;13.47;84.51
79455;BME280;68900;52.134;5.420;2023-09-19T04:45:10;100985.66;;;13.46;84.20
79455;BME280;68900;52.134;5.420;2023-09-19T04:47:37;100983.16;;;13.44;84.42
79455;BME280;68900;52.134;5.420;2023-09-19T04:50:08;100978.59;;;13.45;83.84
79455;BME280;68900;52.134;5.420;2023-09-19T04:52:42;100978.59;;;13.45;84.22
79455;BME280;68900;52.134;5.420;2023-09-19T04:55:13;100979.44;;;13.45;84.38
79455;BME280;68900;52.134;5.420;2023-09-19T04:57:47;100961.78;;;13.41;84.27
79455;BME280;68900;52.134;5.420;2023-09-19T05:00:15;100966.03;;;13.36;83.75
79455;BME280;68900;52.134;5.420;2023-09-19T05:02:43;100962.28;;;13.37;84.23
79455;BME280;68900;52.134;5.420;2023-09-19T05:05:10;100965.34;;;13.34;84.33
79455;BME280;68900;52.134;5.420;2023-09-19T05:07:41;100966.19;;;13.34;84.13
79455;BME280;68900;52.134;5.420;2023-09-19T05:10:09;100975.16;;;13.35;84.66
79455;BME280;68900;52.134;5.420;2023-09-19T05:12:36;100983.13;;;13.36;84.67
79455;BME280;68900;52.134;5.420;2023-09-19T05:15:03;100981.44;;;13.35;84.61
79455;BME280;68900;52.134;5.420;2023-09-19T05:17:31;100979.88;;;13.33;84.50
79455;BME280;68900;52.134;5.420;2023-09-19T05:19:57;100978.22;;;13.32;84.57
79455;BME280;68900;52.134;5.420;2023-09-19T05:22:27;100985.16;;;13.34;84.37
79455;BME280;68900;52.134;5.420;2023-09-19T05:24:53;100982.59;;;13.33;84.35
79455;BME280;68900;52.134;5.420;2023-09-19T05:27:20;100981.59;;;13.34;84.58
79455;BME280;68900;52.134;5.420;2023-09-19T05:29:47;100989.56;;;13.35;84.71
79455;BME280;68900;52.134;5.420;2023-09-19T05:32:15;100975.00;;;13.36;84.70
79455;BME280;68900;52.134;5.420;2023-09-19T05:34:42;100979.88;;;13.33;84.53
79455;BME280;68900;52.134;5.420;2023-09-19T05:37:08;100983.63;;;13.32;85.31
79455;BME280;68900;52.134;5.420;2023-09-19T05:39:35;100965.34;;;13.34;84.82
79455;BME280;68900;52.134;5.420;2023-09-19T05:42:03;100969.06;;;13.33;84.93
79455;BME280;68900;52.134;5.420;2023-09-19T05:44:30;100972.81;;;13.32;85.02
79455;BME280;68900;52.134;5.420;2023-09-19T05:46:58;100970.91;;;13.32;85.48
79455;BME280;68900;52.134;5.420;2023-09-19T05:49:24;100975.81;;;13.37;84.91
79455;BME280;68900;52.134;5.420;2023-09-19T05:51:51;100977.22;;;13.41;85.08
79455;BME280;68900;52.134;5.420;2023-09-19T05:54:22;100974.31;;;13.42;84.97
79455;BME280;68900;52.134;5.420;2023-09-19T05:56:49;100984.31;;;13.42;85.52
79455;BME280;68900;52.134;5.420;2023-09-19T05:59:19;100993.13;;;13.44;85.05
79455;BME280;68900;52.134;5.420;2023-09-19T06:01:45;100991.09;;;13.46;85.30
79455;BME280;68900;52.134;5.420;2023-09-19T06:04:13;100995.84;;;13.52;85.07
79455;BME280;68900;52.134;5.420;2023-09-19T06:06:40;100997.56;;;13.53;85.08
79455;BME280;68900;52.134;5.420;2023-09-19T06:09:06;100997.22;;;13.56;85.37
79455;BME280;68900;52.134;5.420;2023-09-19T06:11:36;101001.47;;;13.58;85.65
79455;BME280;68900;52.134;5.420;2023-09-19T06:14:03;101010.28;;;13.60;85.20
79455;BME280;68900;52.134;5.420;2023-09-19T06:16:30;101014.03;;;13.59;85.42
79455;BME280;68900;52.134;5.420;2023-09-19T06:18:59;101012.13;;;13.60;85.84
79455;BME280;68900;52.134;5.420;2023-09-19T06:21:27;101006.91;;;13.58;85.92
79455;BME280;68900;52.134;5.420;2023-09-19T06:23:53;101012.97;;;13.60;85.63
79455;BME280;68900;52.134;5.420;2023-09-19T06:26:20;101018.25;;;13.62;85.46
79455;BME280;68900;52.134;5.420;2023-09-19T06:28:47;101016.91;;;13.66;85.24
79455;BME280;68900;52.134;5.420;2023-09-19T06:31:13;101016.03;;;13.65;85.70
79455;BME280;68900;52.134;5.420;2023-09-19T06:33:40;101011.81;;;13.63;85.40
79455;BME280;68900;52.134;5.420;2023-09-19T06:36:07;101010.63;;;13.65;85.46
79455;BME280;68900;52.134;5.420;2023-09-19T06:38:33;101002.84;;;13.70;85.51
79455;BME280;68900;52.134;5.420;2023-09-19T06:41:02;101002.69;;;13.72;85.43
79455;BME280;68900;52.134;5.420;2023-09-19T06:43:33;101002.50;;;13.73;86.02
79455;BME280;68900;52.134;5.420;2023-09-19T06:46:03;101000.47;;;13.76;85.91
79455;BME280;68900;52.134;5.420;2023-09-19T06:48:30;100994.88;;;13.77;85.69
79455;BME280;68900;52.134;5.420;2023-09-19T06:50:59;101000.97;;;13.79;86.09
79455;BME280;68900;52.134;5.420;2023-09-19T06:53:32;100996.91;;;13.83;85.75
79455;BME280;68900;52.134;5.420;2023-09-19T06:55:59;101003.03;;;13.85;86.05
79455;BME280;68900;52.134;5.420;2023-09-19T06:58:25;101006.41;;;13.87;86.47
79455;BME280;68900;52.134;5.420;2023-09-19T07:00:52;101003.22;;;13.92;86.40
79455;BME280;68900;52.134;5.420;2023-09-19T07:03:20;100998.94;;;13.97;86.74
79455;BME280;68900;52.134;5.420;2023-09-19T07:05:50;100994.06;;;14.01;86.51
79455;BME280;68900;52.134;5.420;2023-09-19T07:08:16;101001.84;;;14.04;86.67
79455;BME280;68900;52.134;5.420;2023-09-19T07:10:45;100995.75;;;14.10;86.33
79455;BME280;68900;52.134;5.420;2023-09-19T07:13:15;100994.19;;;14.15;85.92
79455;BME280;68900;52.134;5.420;2023-09-19T07:15:45;101004.53;;;14.20;86.27
79455;BME280;68900;52.134;5.420;2023-09-19T07:18:17;101005.56;;;14.27;86.22
79455;BME280;68900;52.134;5.420;2023-09-19T07:20:45;101010.47;;;14.32;86.13
79455;BME280;68900;52.134;5.420;2023-09-19T07:23:19;101012.72;;;14.36;85.98
79455;BME280;68900;52.134;5.420;2023-09-19T07:25:49;101017.63;;;14.41;86.07
79455;BME280;68900;52.134;5.420;2023-09-19T07:28:15;101019.97;;;14.44;85.96
79455;BME280;68900;52.134;5.420;2023-09-19T07:30:42;101027.59;;;14.48;85.28
79455;BME280;68900;52.134;5.420;2023-09-19T07:33:08;101021.66;;;14.53;85.60
79455;BME280;68900;52.134;5.420;2023-09-19T07:35:38;101027.41;;;14.58;84.91
79455;BME280;68900;52.134;5.420;2023-09-19T07:38:08;101042.34;;;14.62;85.07
79455;BME280;68900;52.134;5.420;2023-09-19T07:40:36;101028.09;;;14.68;84.67
79455;BME280;68900;52.134;5.420;2023-09-19T07:43:03;101027.41;;;14.74;85.15
79455;BME280;68900;52.134;5.420;2023-09-19T07:45:31;101030.25;;;14.81;84.68
79455;BME280;68900;52.134;5.420;2023-09-19T07:47:58;101025.16;;;14.86;84.77
79455;BME280;68900;52.134;5.420;2023-09-19T07:50:26;101028.03;;;14.92;84.76
79455;BME280;68900;52.134;5.420;2023-09-19T07:52:53;101029.00;;;14.99;83.88
79455;BME280;68900;52.134;5.420;2023-09-19T07:55:20;101031.03;;;15.06;83.76
79455;BME280;68900;52.134;5.420;2023-09-19T07:57:51;101033.38;;;15.09;83.93
79455;BME280;68900;52.134;5.420;2023-09-19T08:00:18;101027.78;;;15.10;83.59
79455;BME280;68900;52.134;5.420;2023-09-19T08:02:45;101030.13;;;15.13;84.02
79455;BME280;68900;52.134;5.420;2023-09-19T08:05:15;101030.44;;;15.18;83.35
79455;BME280;68900;52.134;5.420;2023-09-19T08:07:44;101035.56;;;15.21;82.99
79455;BME280;68900;52.134;5.420;2023-09-19T08:10:12;101035.69;;;15.28;83.10
79455;BME280;68900;52.134;5.420;2023-09-19T08:12:43;101033.09;;;15.34;82.67
79455;BME280;68900;52.134;5.420;2023-09-19T08:15:17;101032.75;;;15.37;83.19
79455;BME280;68900;52.134;5.420;2023-09-19T08:17:44;101045.63;;;15.43;82.80
79455;BME280;68900;52.134;5.420;2023-09-19T08:20:11;101035.63;;;15.44;82.88
79455;BME280;68900;52.134;5.420;2023-09-19T08:22:52;101032.16;;;15.50;82.88
79455;BME280;68900;52.134;5.420;2023-09-19T08:25:21;101031.47;;;15.56;82.75
79455;BME280;68900;52.134;5.420;2023-09-19T08:27:51;101027.06;;;15.55;82.25
79455;BME280;68900;52.134;5.420;2023-09-19T08:30:20;101029.44;;;15.58;82.72
79455;BME280;68900;52.134;5.420;2023-09-19T08:32:51;101025.13;;;15.64;82.23
79455;BME280;68900;52.134;5.420;2023-09-19T08:35:17;101033.81;;;15.67;82.62
79455;BME280;68900;52.134;5.420;2023-09-19T08:37:44;101021.53;;;15.71;82.85
79455;BME280;68900;52.134;5.420;2023-09-19T08:40:12;101022.88;;;15.75;82.24
79455;BME280;68900;52.134;5.420;2023-09-19T08:42:52;101026.22;;;15.77;82.32
79455;BME280;68900;52.134;5.420;2023-09-19T08:45:24;101025.03;;;15.80;82.46
79455;BME280;68900;52.134;5.420;2023-09-19T08:50:39;101027.84;;;15.95;81.62
79455;BME280;68900;52.134;5.420;2023-09-19T08:53:11;101014.69;;;15.98;81.61
79455;BME280;68900;52.134;5.420;2023-09-19T08:55:40;101015.84;;;16.04;82.11
79455;BME280;68900;52.134;5.420;2023-09-19T08:58:10;101020.75;;;16.08;81.09
79455;BME280;68900;52.134;5.420;2023-09-19T09:00:37;101014.06;;;16.11;80.65
79455;BME280;68900;52.134;5.420;2023-09-19T09:03:09;101018.78;;;16.17;79.59
79455;BME280;68900;52.134;5.420;2023-09-19T09:05:36;101020.41;;;16.26;81.10
79455;BME280;68900;52.134;5.420;2023-09-19T09:08:07;101022.41;;;16.32;80.69
79455;BME280;68900;52.134;5.420;2023-09-19T09:10:34;101020.63;;;16.39;80.42
79455;BME280;68900;52.134;5.420;2023-09-19T09:13:01;101023.28;;;16.47;79.85
79455;BME280;68900;52.134;5.420;2023-09-19T09:15:29;101026.66;;;16.49;79.17
79455;BME280;68900;52.134;5.420;2023-09-19T09:17:59;101016.41;;;16.51;79.11
79455;BME280;68900;52.134;5.420;2023-09-19T09:20:26;101024.03;;;16.56;78.54
79455;BME280;68900;52.134;5.420;2023-09-19T09:22:53;101008.84;;;16.61;77.61
79455;BME280;68900;52.134;5.420;2023-09-19T09:25:21;101009.81;;;16.68;77.82
79455;BME280;68900;52.134;5.420;2023-09-19T09:28:01;101004.91;;;16.78;78.04
79455;BME280;68900;52.134;5.420;2023-09-19T09:30:35;101009.16;;;16.81;78.09
79455;BME280;68900;52.134;5.420;2023-09-19T09:33:13;101005.88;;;16.86;79.08
79455;BME280;68900;52.134;5.420;2023-09-19T09:35:50;101000.13;;;16.95;79.35
79455;BME280;68900;52.134;5.420;2023-09-19T09:38:25;100997.22;;;16.97;77.98
79455;BME280;68900;52.134;5.420;2023-09-19T09:40:58;101001.91;;;17.03;78.38
79455;BME280;68900;52.134;5.420;2023-09-19T09:43:35;100997.56;;;17.08;76.38
79455;BME280;68900;52.134;5.420;2023-09-19T09:46:10;100984.41;;;17.12;76.29
79455;BME280;68900;52.134;5.420;2023-09-19T09:48:47;100984.03;;;17.15;76.58
79455;BME280;68900;52.134;5.420;2023-09-19T09:51:33;100982.22;;;17.22;76.26
79455;BME280;68900;52.134;5.420;2023-09-19T09:54:15;100981.75;;;17.33;76.14
79455;BME280;68900;52.134;5.420;2023-09-19T09:56:56;100977.13;;;17.34;75.63
79455;BME280;68900;52.134;5.420;2023-09-19T09:59:50;100990.56;;;17.35;75.58
79455;BME280;68900;52.134;5.420;2023-09-19T10:02:29;100984.97;;;17.43;75.50
79455;BME280;68900;52.134;5.420;2023-09-19T10:05:11;100993.66;;;17.47;74.81
79455;BME280;68900;52.134;5.420;2023-09-19T10:08:11;100989.69;;;17.49;75.23
79455;BME280;68900;52.134;5.420;2023-09-19T10:10:39;100985.53;;;17.53;75.26
79455;BME280;68900;52.134;5.420;2023-09-19T10:13:13;100996.91;;;17.57;75.08
79455;BME280;68900;52.134;5.420;2023-09-19T10:15:49;100993.34;;;17.56;74.76
79455;BME280;68900;52.134;5.420;2023-09-19T10:18:23;100989.50;;;17.65;74.23
79455;BME280;68900;52.134;5.420;2023-09-19T10:20:50;100990.56;;;17.71;75.11
79455;BME280;68900;52.134;5.420;2023-09-19T10:23:18;100995.22;;;17.71;72.06
79455;BME280;68900;52.134;5.420;2023-09-19T10:25:53;100983.22;;;17.72;72.75
79455;BME280;68900;52.134;5.420;2023-09-19T10:28:21;100981.16;;;17.74;72.75
79455;BME280;68900;52.134;5.420;2023-09-19T10:30:53;100980.19;;;17.81;72.98
79455;BME280;68900;52.134;5.420;2023-09-19T10:33:25;100966.59;;;17.88;73.16
79455;BME280;68900;52.134;5.420;2023-09-19T10:35:59;100959.84;;;17.84;72.20
79455;BME280;68900;52.134;5.420;2023-09-19T10:38:27;100960.16;;;17.95;72.70
79455;BME280;68900;52.134;5.420;2023-09-19T10:40:56;100949.75;;;18.05;72.48
79455;BME280;68900;52.134;5.420;2023-09-19T10:43:31;100961.19;;;18.16;72.57
79455;BME280;68900;52.134;5.420;2023-09-19T10:46:03;100951.97;;;18.23;71.96
79455;BME280;68900;52.134;5.420;2023-09-19T10:48:38;100947.38;;;18.24;70.98
79455;BME280;68900;52.134;5.420;2023-09-19T10:51:08;100949.25;;;18.23;71.49
79455;BME280;68900;52.134;5.420;2023-09-19T10:53:51;100942.34;;;18.27;72.08
79455;BME280;68900;52.134;5.420;2023-09-19T10:56:26;100946.16;;;18.26;72.94
79455;BME280;68900;52.134;5.420;2023-09-19T10:59:07;100925.75;;;18.29;72.46
79455;BME280;68900;52.134;5.420;2023-09-19T11:04:24;100916.44;;;18.44;71.34
79455;BME280;68900;52.134;5.420;2023-09-19T11:09:54;100919.50;;;18.63;71.83
79455;BME280;68900;52.134;5.420;2023-09-19T11:14:59;100919.53;;;18.69;71.31
79455;BME280;68900;52.134;5.420;2023-09-19T11:17:35;100929.16;;;18.65;70.36
79455;BME280;68900;52.134;5.420;2023-09-19T11:30:40;100914.28;;;18.74;69.19
79455;BME280;68900;52.134;5.420;2023-09-19T11:33:20;100925.63;;;18.71;70.10
79455;BME280;68900;52.134;5.420;2023-09-19T11:46:27;100897.13;;;18.52;70.35
79455;BME280;68900;52.134;5.420;2023-09-19T11:48:54;100891.66;;;18.52;69.01
79455;BME280;68900;52.134;5.420;2023-09-19T11:51:24;100909.38;;;18.57;68.73
79455;BME280;68900;52.134;5.420;2023-09-19T11:53:58;100896.56;;;18.64;68.45
79455;BME280;68900;52.134;5.420;2023-09-19T11:56:28;100896.63;;;18.70;68.87
79455;BME280;68900;52.134;5.420;2023-09-19T11:58:56;100894.72;;;18.71;67.21
79455;BME280;68900;52.134;5.420;2023-09-19T12:01:31;100898.09;;;18.73;67.89
79455;BME280;68900;52.134;5.420;2023-09-19T12:04:00;100892.63;;;18.73;67.77
79455;BME280;68900;52.134;5.420;2023-09-19T12:06:29;100911.53;;;18.68;67.81
79455;BME280;68900;52.134;5.420;2023-09-19T12:08:59;100916.53;;;18.64;67.68
79455;BME280;68900;52.134;5.420;2023-09-19T12:11:30;100922.25;;;18.63;67.51
79455;BME280;68900;52.134;5.420;2023-09-19T12:14:01;100920.34;;;18.63;67.98
79455;BME280;68900;52.134;5.420;2023-09-19T12:16:28;100922.47;;;18.68;68.10
79455;BME280;68900;52.134;5.420;2023-09-19T12:19:17;100906.50;;;18.71;68.53
79455;BME280;68900;52.134;5.420;2023-09-19T12:21:44;100900.19;;;18.71;67.66
79455;BME280;68900;52.134;5.420;2023-09-19T12:24:12;100902.72;;;18.72;68.04
79455;BME280;68900;52.134;5.420;2023-09-19T12:26:44;100900.38;;;18.69;67.81
79455;BME280;68900;52.134;5.420;2023-09-19T12:29:19;100908.16;;;18.66;67.48
79455;BME280;68900;52.134;5.420;2023-09-19T12:31:50;100914.88;;;18.63;68.25
79455;BME280;68900;52.134;5.420;2023-09-19T12:34:21;100910.88;;;18.66;67.82
79455;BME280;68900;52.134;5.420;2023-09-19T12:36:49;100911.53;;;18.68;68.22
79455;BME280;68900;52.134;5.420;2023-09-19T12:39:24;100893.03;;;18.70;67.84
79455;BME280;68900;52.134;5.420;2023-09-19T12:41:52;100907.53;;;18.70;67.78
79455;BME280;68900;52.134;5.420;2023-09-19T12:44:19;100898.69;;;18.68;68.04
79455;BME280;68900;52.134;5.420;2023-09-19T12:46:46;100906.69;;;18.63;68.42
79455;BME280;68900;52.134;5.420;2023-09-19T12:49:18;100900.31;;;18.56;68.25
79455;BME280;68900;52.134;5.420;2023-09-19T12:51:49;100918.13;;;18.52;68.56
79455;BME280;68900;52.134;5.420;2023-09-19T12:54:15;100906.38;;;18.51;69.09
79455;BME280;68900;52.134;5.420;2023-09-19T12:56:44;100914.75;;;18.50;70.80
79455;BME280;68900;52.134;5.420;2023-09-19T12:59:15;100914.31;;;18.46;70.58
79455;BME280;68900;52.134;5.420;2023-09-19T13:01:43;100910.97;;;18.51;69.97
79455;BME280;68900;52.134;5.420;2023-09-19T13:04:20;100906.44;;;18.58;70.06
79455;BME280;68900;52.134;5.420;2023-09-19T13:06:53;100908.56;;;18.63;69.54
79455;BME280;68900;52.134;5.420;2023-09-19T13:09:22;100903.94;;;18.63;69.66
79455;BME280;68900;52.134;5.420;2023-09-19T13:12:00;100903.34;;;18.68;69.37
79455;BME280;68900;52.134;5.420;2023-09-19T13:14:32;100898.94;;;18.73;69.63
79455;BME280;68900;52.134;5.420;2023-09-19T13:17:07;100908.19;;;18.72;70.27
79455;BME280;68900;52.134;5.420;2023-09-19T13:19:46;100912.59;;;18.67;69.58
79455;BME280;68900;52.134;5.420;2023-09-19T13:22:40;100931.66;;;18.60;70.91
79455;BME280;68900;52.134;5.420;2023-09-19T13:25:21;100921.56;;;18.54;71.39
79455;BME280;68900;52.134;5.420;2023-09-19T13:27:50;100927.13;;;18.46;72.17
79455;BME280;68900;52.134;5.420;2023-09-19T13:30:23;100903.56;;;18.38;71.47
79455;BME280;68900;52.134;5.420;2023-09-19T13:32:52;100919.28;;;18.36;72.79
79455;BME280;68900;52.134;5.420;2023-09-19T13:35:19;100911.34;;;18.41;72.23
79455;BME280;68900;52.134;5.420;2023-09-19T13:37:46;100914.56;;;18.51;71.22
79455;BME280;68900;52.134;5.420;2023-09-19T13:40:18;100913.78;;;18.58;70.61
79455;BME280;68900;52.134;5.420;2023-09-19T13:42:44;100904.56;;;18.65;71.58
79455;BME280;68900;52.134;5.420;2023-09-19T13:45:11;100904.63;;;18.72;70.48
79455;BME280;68900;52.134;5.420;2023-09-19T13:47:39;100889.50;;;18.76;70.41
79455;BME280;68900;52.134;5.420;2023-09-19T13:50:08;100878.13;;;18.79;69.64
79455;BME280;68900;52.134;5.420;2023-09-19T13:52:36;100891.00;;;18.85;69.83